createdAt,value
2017-10-25T00:00:41.051Z,0.00
2017-10-25T00:01:41.055Z,0.00
2017-10-25T00:02:41.050Z,0.00
2017-10-25T00:03:41.050Z,0.00
2017-10-25T00:04:41.053Z,0.00
2017-10-25T00:05:41.046Z,0.00
2017-10-25T00:06:41.043Z,0.00
2017-10-25T00:07:41.042Z,0.00
2017-10-25T00:08:41.048Z,0.00
2017-10-25T00:09:41.041Z,0.00
2017-10-25T00:10:41.042Z,0.00
2017-10-25T00:11:41.037Z,0.00
2017-10-25T00:12:41.035Z,0.00
2017-10-25T00:13:41.030Z,0.00
2017-10-25T00:14:41.029Z,0.00
2017-10-25T00:15:41.028Z,0.00
2017-10-25T00:16:41.031Z,0.00
2017-10-25T00:17:41.024Z,0.00
2017-10-25T00:18:41.026Z,0.00
2017-10-25T00:19:41.022Z,0.00
2017-10-25T00:20:41.019Z,0.00
2017-10-25T00:21:41.014Z,0.00
2017-10-25T00:22:41.015Z,0.00
2017-10-25T00:23:41.014Z,0.00
2017-10-25T00:24:41.014Z,0.00
2017-10-25T00:25:41.018Z,0.00
2017-10-25T00:26:41.010Z,0.00
2017-10-25T00:27:41.009Z,0.00
2017-10-25T00:28:41.009Z,0.00
2017-10-25T00:29:41.001Z,0.00
2017-10-25T00:30:41.006Z,0.00
2017-10-25T00:31:41.802Z,0.00
2017-10-25T00:32:41.804Z,0.00
2017-10-25T00:33:41.016Z,0.00
2017-10-25T00:34:40.997Z,0.00
2017-10-25T00:35:41.804Z,0.00
2017-10-25T00:36:41.000Z,0.00
2017-10-25T00:37:40.992Z,4.00
2017-10-25T00:38:41.033Z,0.00
2017-10-25T00:39:40.992Z,0.00
2017-10-25T00:40:40.988Z,0.00
2017-10-25T00:41:40.985Z,0.00
2017-10-25T00:42:40.985Z,4.00
2017-10-25T00:43:40.983Z,0.00
2017-10-25T00:44:40.983Z,0.00
2017-10-25T00:45:40.979Z,0.00
2017-10-25T00:46:40.973Z,0.00
2017-10-25T00:47:40.973Z,0.00
2017-10-25T00:48:40.975Z,0.00
2017-10-25T00:49:40.972Z,0.00
2017-10-25T00:50:40.971Z,0.00
2017-10-25T00:51:40.976Z,0.00
2017-10-25T00:52:40.970Z,0.00
2017-10-25T00:53:42.309Z,0.00
2017-10-25T00:54:40.971Z,0.00
2017-10-25T00:55:40.967Z,0.00
2017-10-25T00:56:40.965Z,0.00
2017-10-25T00:57:40.964Z,0.00
2017-10-25T00:58:40.967Z,0.00
2017-10-25T00:59:40.958Z,0.00
2017-10-25T01:00:41.003Z,0.00
2017-10-25T01:01:41.015Z,0.00
2017-10-25T01:02:40.973Z,0.00
2017-10-25T01:03:40.955Z,0.00
2017-10-25T01:04:40.956Z,0.00
2017-10-25T01:05:40.960Z,0.00
2017-10-25T01:06:40.955Z,0.00
2017-10-25T01:07:40.952Z,0.00
2017-10-25T01:08:40.950Z,0.00
2017-10-25T01:09:40.948Z,0.00
2017-10-25T01:10:40.946Z,0.00
2017-10-25T01:11:40.949Z,0.00
2017-10-25T01:12:40.943Z,0.00
2017-10-25T01:13:40.941Z,0.00
2017-10-25T01:14:40.940Z,0.00
2017-10-25T01:15:40.941Z,0.00
2017-10-25T01:16:40.937Z,0.00
2017-10-25T01:17:40.936Z,0.00
2017-10-25T01:18:40.934Z,0.00
2017-10-25T01:19:40.934Z,0.00
2017-10-25T01:20:40.935Z,0.00
2017-10-25T01:21:40.934Z,0.00
2017-10-25T01:22:40.930Z,0.00
2017-10-25T01:23:40.928Z,0.00
2017-10-25T01:24:40.925Z,0.00
2017-10-25T01:25:40.925Z,0.00
2017-10-25T01:26:40.925Z,0.00
2017-10-25T01:27:40.922Z,0.00
2017-10-25T01:28:40.924Z,0.00
2017-10-25T01:29:40.933Z,0.00
2017-10-25T01:30:40.923Z,0.00
2017-10-25T01:31:40.918Z,0.00
2017-10-25T01:32:40.918Z,0.00
2017-10-25T01:33:40.915Z,0.00
2017-10-25T01:34:40.912Z,0.00
2017-10-25T01:35:40.912Z,0.00
2017-10-25T01:36:40.910Z,0.00
2017-10-25T01:37:40.911Z,0.00
2017-10-25T01:38:40.907Z,0.00
2017-10-25T01:39:40.904Z,0.00
2017-10-25T01:40:40.907Z,0.00
2017-10-25T01:41:40.905Z,0.00
2017-10-25T01:42:40.903Z,0.00
2017-10-25T01:43:40.900Z,0.00
2017-10-25T01:44:40.899Z,0.00
2017-10-25T01:45:40.898Z,0.00
2017-10-25T01:46:40.898Z,0.00
2017-10-25T01:47:40.894Z,0.00
2017-10-25T01:48:40.896Z,0.00
2017-10-25T01:49:40.890Z,0.00
2017-10-25T01:50:40.888Z,0.00
2017-10-25T01:51:40.891Z,0.00
2017-10-25T01:52:40.882Z,0.00
2017-10-25T01:53:40.889Z,0.00
2017-10-25T01:54:40.882Z,0.00
2017-10-25T01:55:40.881Z,0.00
2017-10-25T01:56:40.881Z,0.00
2017-10-25T01:57:40.880Z,0.00
2017-10-25T01:58:40.879Z,0.00
2017-10-25T01:59:40.876Z,0.00
2017-10-25T02:00:40.872Z,0.00
2017-10-25T02:01:40.874Z,0.00
2017-10-25T02:02:40.870Z,0.00
2017-10-25T02:03:40.867Z,0.00
2017-10-25T02:04:40.868Z,0.00
2017-10-25T02:05:40.865Z,0.00
2017-10-25T02:06:40.874Z,0.00
2017-10-25T02:07:40.863Z,0.00
2017-10-25T02:08:40.861Z,0.00
2017-10-25T02:09:40.860Z,0.00
2017-10-25T02:10:40.858Z,0.00
2017-10-25T02:11:40.861Z,0.00
2017-10-25T02:12:40.857Z,0.00
2017-10-25T02:13:40.856Z,0.00
2017-10-25T02:14:40.852Z,0.00
2017-10-25T02:15:40.850Z,0.00
2017-10-25T02:16:40.850Z,0.00
2017-10-25T02:17:40.847Z,0.00
2017-10-25T02:18:40.846Z,0.00
2017-10-25T02:19:40.845Z,0.00
2017-10-25T02:20:40.843Z,0.00
2017-10-25T02:21:40.844Z,0.00
2017-10-25T02:22:40.841Z,0.00
2017-10-25T02:23:40.836Z,0.00
2017-10-25T02:24:40.836Z,0.00
2017-10-25T02:25:40.836Z,0.00
2017-10-25T02:26:40.836Z,0.00
2017-10-25T02:27:40.832Z,0.00
2017-10-25T02:28:40.828Z,0.00
2017-10-25T02:29:40.830Z,0.00
2017-10-25T02:30:40.842Z,0.00
2017-10-25T02:31:40.829Z,0.00
2017-10-25T02:32:40.825Z,0.00
2017-10-25T02:33:40.831Z,0.00
2017-10-25T02:34:40.823Z,0.00
2017-10-25T02:35:40.819Z,0.00
2017-10-25T02:36:40.821Z,0.00
2017-10-25T02:37:40.822Z,0.00
2017-10-25T02:38:40.818Z,0.00
2017-10-25T02:39:40.816Z,0.00
2017-10-25T02:40:40.814Z,0.00
2017-10-25T02:41:40.815Z,0.00
2017-10-25T02:42:40.811Z,0.00
2017-10-25T02:43:40.810Z,0.00
2017-10-25T02:44:40.811Z,0.00
2017-10-25T02:45:40.806Z,0.00
2017-10-25T02:46:40.806Z,0.00
2017-10-25T02:47:40.814Z,0.00
2017-10-25T02:48:40.801Z,0.00
2017-10-25T02:49:40.803Z,0.00
2017-10-25T02:50:40.800Z,0.00
2017-10-25T02:51:40.805Z,0.00
2017-10-25T02:52:40.797Z,0.00
2017-10-25T02:53:40.796Z,0.00
2017-10-25T02:54:40.790Z,0.00
2017-10-25T02:55:40.791Z,0.00
2017-10-25T02:56:40.791Z,0.00
2017-10-25T02:57:40.791Z,0.00
2017-10-25T02:58:40.789Z,0.00
2017-10-25T02:59:40.793Z,0.00
2017-10-25T03:00:40.786Z,0.00
2017-10-25T03:01:40.788Z,0.00
2017-10-25T03:02:40.782Z,0.00
2017-10-25T03:03:40.783Z,0.00
2017-10-25T03:04:40.781Z,0.00
2017-10-25T03:05:40.781Z,0.00
2017-10-25T03:06:40.777Z,0.00
2017-10-25T03:07:40.776Z,0.00
2017-10-25T03:08:40.775Z,0.00
2017-10-25T03:09:40.768Z,0.00
2017-10-25T03:10:40.773Z,0.00
2017-10-25T03:11:40.768Z,0.00
2017-10-25T03:12:40.769Z,0.00
2017-10-25T03:13:40.772Z,0.00
2017-10-25T03:14:40.766Z,0.00
2017-10-25T03:15:40.765Z,0.00
2017-10-25T03:16:40.765Z,0.00
2017-10-25T03:17:40.764Z,0.00
2017-10-25T03:18:40.772Z,0.00
2017-10-25T03:19:40.758Z,0.00
2017-10-25T03:20:40.757Z,0.00
2017-10-25T03:21:40.760Z,0.00
2017-10-25T03:22:40.756Z,0.00
2017-10-25T03:23:40.755Z,0.00
2017-10-25T03:24:40.753Z,0.00
2017-10-25T03:25:40.754Z,0.00
2017-10-25T03:26:40.751Z,0.00
2017-10-25T03:27:40.750Z,0.00
2017-10-25T03:28:40.748Z,0.00
2017-10-25T03:29:40.747Z,0.00
2017-10-25T03:30:40.747Z,0.00
2017-10-25T03:31:40.743Z,0.00
2017-10-25T03:32:40.742Z,0.00
2017-10-25T03:33:40.742Z,0.00
2017-10-25T03:34:40.743Z,0.00
2017-10-25T03:35:40.739Z,0.00
2017-10-25T03:36:40.738Z,0.00
2017-10-25T03:37:40.734Z,0.00
2017-10-25T03:38:40.734Z,0.00
2017-10-25T03:39:40.733Z,0.00
2017-10-25T03:40:40.733Z,0.00
2017-10-25T03:41:40.734Z,0.00
2017-10-25T03:42:40.730Z,0.00
2017-10-25T03:43:40.728Z,0.00
2017-10-25T03:44:40.725Z,0.00
2017-10-25T03:45:40.724Z,0.00
2017-10-25T03:46:40.725Z,0.00
2017-10-25T03:47:40.721Z,0.00
2017-10-25T03:48:40.720Z,0.00
2017-10-25T03:49:40.723Z,0.00
2017-10-25T03:50:40.720Z,0.00
2017-10-25T03:51:40.720Z,0.00
2017-10-25T03:52:40.718Z,0.00
2017-10-25T03:53:40.716Z,0.00
2017-10-25T03:54:40.715Z,0.00
2017-10-25T03:55:40.715Z,0.00
2017-10-25T03:56:40.710Z,0.00
2017-10-25T03:57:40.711Z,0.00
2017-10-25T03:58:40.705Z,0.00
2017-10-25T03:59:40.708Z,0.00
2017-10-25T04:00:40.707Z,0.00
2017-10-25T04:01:40.707Z,0.00
2017-10-25T04:02:40.704Z,0.00
2017-10-25T04:03:40.702Z,0.00
2017-10-25T04:04:40.702Z,0.00
2017-10-25T04:05:40.700Z,0.00
2017-10-25T04:06:40.693Z,0.00
2017-10-25T04:07:40.706Z,0.00
2017-10-25T04:08:40.699Z,0.00
2017-10-25T04:09:40.694Z,0.00
2017-10-25T04:10:40.695Z,0.00
2017-10-25T04:11:40.694Z,0.00
2017-10-25T04:12:40.694Z,0.00
2017-10-25T04:13:40.692Z,0.00
2017-10-25T04:14:40.689Z,0.00
2017-10-25T04:15:40.687Z,0.00
2017-10-25T04:16:40.686Z,0.00
2017-10-25T04:17:40.686Z,0.00
2017-10-25T04:18:40.685Z,0.00
2017-10-25T04:19:40.683Z,0.00
2017-10-25T04:20:40.682Z,0.00
2017-10-25T04:21:40.683Z,0.00
2017-10-25T04:22:40.680Z,0.00
2017-10-25T04:23:40.677Z,0.00
2017-10-25T04:24:40.676Z,0.00
2017-10-25T04:25:40.675Z,0.00
2017-10-25T04:26:40.676Z,0.00
2017-10-25T04:27:40.669Z,0.00
2017-10-25T04:28:40.672Z,0.00
2017-10-25T04:29:40.670Z,0.00
2017-10-25T04:30:40.672Z,0.00
2017-10-25T04:31:40.672Z,0.00
2017-10-25T04:32:40.666Z,0.00
2017-10-25T04:33:40.665Z,0.00
2017-10-25T04:34:40.663Z,0.00
2017-10-25T04:35:40.662Z,0.00
2017-10-25T04:36:40.663Z,0.00
2017-10-25T04:37:40.659Z,0.00
2017-10-25T04:38:40.659Z,0.00
2017-10-25T04:39:40.658Z,0.00
2017-10-25T04:40:40.656Z,0.00
2017-10-25T04:41:40.659Z,0.00
2017-10-25T04:42:40.659Z,0.00
2017-10-25T04:43:40.657Z,0.00
2017-10-25T04:44:40.653Z,0.00
2017-10-25T04:45:40.651Z,0.00
2017-10-25T04:46:40.651Z,0.00
2017-10-25T04:47:40.651Z,0.00
2017-10-25T04:48:40.647Z,0.00
2017-10-25T04:49:40.644Z,0.00
2017-10-25T04:50:40.645Z,0.00
2017-10-25T04:51:40.646Z,0.00
2017-10-25T04:52:40.645Z,0.00
2017-10-25T04:53:40.640Z,0.00
2017-10-25T04:54:40.639Z,0.00
2017-10-25T04:55:40.638Z,0.00
2017-10-25T04:56:40.640Z,0.00
2017-10-25T04:57:40.637Z,0.00
2017-10-25T04:58:40.636Z,0.00
2017-10-25T04:59:40.633Z,0.00
2017-10-25T05:00:40.632Z,0.00
2017-10-25T05:01:40.635Z,0.00
2017-10-25T05:02:40.628Z,0.00
2017-10-25T05:03:40.636Z,0.00
2017-10-25T05:04:40.627Z,0.00
2017-10-25T05:05:40.625Z,0.00
2017-10-25T05:06:40.631Z,0.00
2017-10-25T05:07:40.626Z,0.00
2017-10-25T05:08:40.624Z,0.00
2017-10-25T05:09:40.625Z,0.00
2017-10-25T05:10:40.622Z,0.00
2017-10-25T05:11:40.621Z,0.00
2017-10-25T05:12:40.615Z,0.00
2017-10-25T05:13:40.625Z,0.00
2017-10-25T05:14:40.615Z,0.00
2017-10-25T05:15:40.613Z,0.00
2017-10-25T05:16:40.613Z,0.00
2017-10-25T05:17:40.607Z,0.00
2017-10-25T05:18:40.611Z,0.00
2017-10-25T05:19:40.608Z,0.00
2017-10-25T05:20:40.608Z,0.00
2017-10-25T05:21:40.609Z,0.00
2017-10-25T05:22:40.608Z,4.00
2017-10-25T05:23:40.605Z,4.00
2017-10-25T05:24:40.611Z,4.00
2017-10-25T05:25:40.600Z,0.00
2017-10-25T05:26:40.599Z,4.00
2017-10-25T05:27:40.598Z,4.00
2017-10-25T05:28:40.599Z,8.00
2017-10-25T05:29:40.596Z,4.00
2017-10-25T05:30:40.596Z,8.00
2017-10-25T05:31:40.597Z,12.00
2017-10-25T05:32:40.594Z,12.00
2017-10-25T05:33:40.591Z,16.00
2017-10-25T05:34:40.590Z,16.00
2017-10-25T05:35:40.590Z,20.00
2017-10-25T05:36:40.589Z,24.00
2017-10-25T05:37:40.588Z,28.00
2017-10-25T05:38:40.589Z,32.00
2017-10-25T05:39:40.584Z,32.00
2017-10-25T05:40:40.583Z,40.00
2017-10-25T05:41:40.584Z,44.00
2017-10-25T05:42:40.580Z,44.00
2017-10-25T05:43:40.580Z,52.00
2017-10-25T05:44:40.582Z,52.00
2017-10-25T05:45:40.577Z,64.00
2017-10-25T05:46:40.579Z,68.00
2017-10-25T05:47:40.575Z,68.00
2017-10-25T05:48:40.572Z,76.00
2017-10-25T05:49:40.573Z,88.00
2017-10-25T05:50:40.574Z,84.00
2017-10-25T05:51:40.572Z,96.00
2017-10-25T05:52:40.569Z,120.00
2017-10-25T05:53:40.569Z,140.00
2017-10-25T05:54:40.568Z,148.00
2017-10-25T05:55:40.565Z,160.00
2017-10-25T05:56:40.561Z,180.00
2017-10-25T05:57:40.566Z,196.00
2017-10-25T05:58:40.561Z,220.00
2017-10-25T05:59:40.557Z,228.00
2017-10-25T06:00:40.558Z,240.00
2017-10-25T06:01:40.560Z,248.00
2017-10-25T06:02:40.557Z,268.00
2017-10-25T06:03:40.555Z,308.00
2017-10-25T06:04:40.552Z,336.00
2017-10-25T06:05:40.555Z,356.00
2017-10-25T06:06:40.551Z,356.00
2017-10-25T06:07:40.550Z,364.00
2017-10-25T06:08:40.547Z,380.00
2017-10-25T06:09:40.549Z,420.00
2017-10-25T06:10:40.548Z,476.00
2017-10-25T06:11:40.546Z,520.00
2017-10-25T06:12:40.573Z,536.00
2017-10-25T06:13:40.543Z,556.00
2017-10-25T06:14:40.542Z,548.00
2017-10-25T06:15:40.540Z,560.00
2017-10-25T06:16:40.536Z,564.00
2017-10-25T06:17:40.537Z,568.00
2017-10-25T06:18:40.537Z,516.00
2017-10-25T06:19:40.535Z,468.00
2017-10-25T06:20:40.535Z,472.00
2017-10-25T06:21:40.544Z,568.00
2017-10-25T06:22:40.534Z,620.00
2017-10-25T06:23:40.532Z,712.00
2017-10-25T06:24:40.530Z,748.00
2017-10-25T06:25:40.530Z,812.00
2017-10-25T06:26:40.528Z,876.00
2017-10-25T06:27:40.527Z,900.00
2017-10-25T06:28:40.531Z,892.00
2017-10-25T06:29:40.523Z,840.00
2017-10-25T06:30:40.523Z,816.00
2017-10-25T06:31:40.525Z,852.00
2017-10-25T06:32:40.530Z,884.00
2017-10-25T06:33:40.522Z,892.00
2017-10-25T06:34:40.519Z,956.00
2017-10-25T06:35:40.521Z,992.00
2017-10-25T06:36:40.517Z,1160.00
2017-10-25T06:37:40.522Z,1272.00
2017-10-25T06:38:40.514Z,1320.00
2017-10-25T06:39:40.514Z,1288.00
2017-10-25T06:40:40.512Z,1212.00
2017-10-25T06:41:40.517Z,1220.00
2017-10-25T06:42:40.507Z,1348.00
2017-10-25T06:43:40.511Z,1440.00
2017-10-25T06:44:40.508Z,1512.00
2017-10-25T06:45:40.506Z,1580.00
2017-10-25T06:46:40.512Z,1480.00
2017-10-25T06:47:40.508Z,1260.00
2017-10-25T06:48:40.506Z,1144.00
2017-10-25T06:49:40.503Z,1156.00
2017-10-25T06:50:40.505Z,1096.00
2017-10-25T06:51:40.505Z,1108.00
2017-10-25T06:52:40.509Z,1148.00
2017-10-25T06:53:40.502Z,1224.00
2017-10-25T06:54:40.505Z,1328.00
2017-10-25T06:55:40.500Z,1356.00
2017-10-25T06:56:40.500Z,1396.00
2017-10-25T06:57:40.503Z,1300.00
2017-10-25T06:58:40.496Z,1332.00
2017-10-25T06:59:40.495Z,1488.00
2017-10-25T07:00:40.497Z,1488.00
2017-10-25T07:01:40.495Z,1536.00
2017-10-25T07:02:40.498Z,1664.00
2017-10-25T07:03:40.493Z,1716.00
2017-10-25T07:04:40.493Z,1676.00
2017-10-25T07:05:40.490Z,1652.00
2017-10-25T07:06:40.493Z,1776.00
2017-10-25T07:07:40.490Z,1932.00
2017-10-25T07:08:40.489Z,1936.00
2017-10-25T07:09:40.492Z,1920.00
2017-10-25T07:10:40.508Z,2084.00
2017-10-25T07:11:40.493Z,2220.00
2017-10-25T07:12:40.492Z,2240.00
2017-10-25T07:13:40.513Z,2404.00
2017-10-25T07:14:40.485Z,2316.00
2017-10-25T07:15:40.487Z,2240.00
2017-10-25T07:16:40.485Z,2220.00
2017-10-25T07:17:40.487Z,2072.00
2017-10-25T07:18:40.485Z,2052.00
2017-10-25T07:19:40.481Z,2160.00
2017-10-25T07:20:40.481Z,2144.00
2017-10-25T07:21:40.483Z,2000.00
2017-10-25T07:22:40.476Z,2060.00
2017-10-25T07:23:40.479Z,1984.00
2017-10-25T07:24:40.479Z,1988.00
2017-10-25T07:25:40.478Z,2008.00
2017-10-25T07:26:40.477Z,2012.00
2017-10-25T07:27:40.481Z,1964.00
2017-10-25T07:28:40.476Z,1920.00
2017-10-25T07:29:40.479Z,1932.00
2017-10-25T07:30:40.477Z,1872.00
2017-10-25T07:31:40.475Z,1800.00
2017-10-25T07:32:40.476Z,1776.00
2017-10-25T07:33:40.475Z,1792.00
2017-10-25T07:34:40.478Z,1828.00
2017-10-25T07:35:40.476Z,2000.00
2017-10-25T07:36:40.471Z,2260.00
2017-10-25T07:37:40.480Z,2452.00
2017-10-25T07:38:40.473Z,2564.00
2017-10-25T07:39:40.476Z,2520.00
2017-10-25T07:40:40.470Z,2672.00
2017-10-25T07:41:40.474Z,2816.00
2017-10-25T07:42:40.477Z,2984.00
2017-10-25T07:43:40.464Z,3292.00
2017-10-25T07:44:40.469Z,3272.00
2017-10-25T07:45:40.471Z,3348.00
2017-10-25T07:46:40.471Z,3336.00
2017-10-25T07:47:40.470Z,3360.00
2017-10-25T07:48:40.464Z,3296.00
2017-10-25T07:49:40.468Z,3288.00
2017-10-25T07:50:40.465Z,3668.00
2017-10-25T07:51:40.469Z,3808.00
2017-10-25T07:52:40.470Z,3660.00
2017-10-25T07:53:40.467Z,3580.00
2017-10-25T07:54:40.468Z,3460.00
2017-10-25T07:55:40.466Z,3380.00
2017-10-25T07:56:40.468Z,3244.00
2017-10-25T07:57:40.627Z,3184.00
2017-10-25T07:58:40.465Z,3308.00
2017-10-25T07:59:40.466Z,3412.00
2017-10-25T08:00:40.467Z,3444.00
2017-10-25T08:01:40.462Z,3608.00
2017-10-25T08:02:40.495Z,3736.00
2017-10-25T08:03:40.467Z,3868.00
2017-10-25T08:04:40.467Z,3964.00
2017-10-25T08:05:40.469Z,4112.00
2017-10-25T08:06:40.467Z,4196.00
2017-10-25T08:07:40.465Z,4204.00
2017-10-25T08:08:40.468Z,4240.00
2017-10-25T08:09:40.476Z,4264.00
2017-10-25T08:10:40.467Z,4252.00
2017-10-25T08:11:40.465Z,4100.00
2017-10-25T08:12:40.471Z,4060.00
2017-10-25T08:13:40.469Z,4084.00
2017-10-25T08:14:40.492Z,3920.00
2017-10-25T08:15:40.476Z,3932.00
2017-10-25T08:16:40.469Z,4072.00
2017-10-25T08:17:40.471Z,3780.00
2017-10-25T08:18:40.469Z,3688.00
2017-10-25T08:19:40.468Z,3820.00
2017-10-25T08:20:40.474Z,3928.00
2017-10-25T08:21:40.470Z,3856.00
2017-10-25T08:22:40.474Z,3708.00
2017-10-25T08:23:40.472Z,3628.00
2017-10-25T08:24:40.474Z,3688.00
2017-10-25T08:25:40.473Z,3624.00
2017-10-25T08:26:40.471Z,3764.00
2017-10-25T08:27:40.471Z,3876.00
2017-10-25T08:28:40.472Z,3940.00
2017-10-25T08:29:40.472Z,4328.00
2017-10-25T08:30:40.474Z,5016.00
2017-10-25T08:31:40.474Z,4704.00
2017-10-25T08:32:40.475Z,4852.00
2017-10-25T08:33:40.475Z,4644.00
2017-10-25T08:34:40.474Z,4216.00
2017-10-25T08:35:40.488Z,4112.00
2017-10-25T08:36:40.503Z,4404.00
2017-10-25T08:37:40.472Z,4616.00
2017-10-25T08:38:40.476Z,4564.00
2017-10-25T08:39:40.477Z,4416.00
2017-10-25T08:40:40.479Z,4144.00
2017-10-25T08:41:40.478Z,3952.00
2017-10-25T08:42:40.497Z,3652.00
2017-10-25T08:43:40.478Z,3436.00
2017-10-25T08:44:40.480Z,3208.00
2017-10-25T08:45:40.484Z,3076.00
2017-10-25T08:46:40.480Z,3188.00
2017-10-25T08:47:40.480Z,3412.00
2017-10-25T08:48:40.481Z,3400.00
2017-10-25T08:49:40.505Z,3340.00
2017-10-25T08:50:40.487Z,3256.00
2017-10-25T08:51:40.481Z,3080.00
2017-10-25T08:52:40.484Z,2940.00
2017-10-25T08:53:40.483Z,2956.00
2017-10-25T08:54:40.482Z,3004.00
2017-10-25T08:55:40.481Z,2936.00
2017-10-25T08:56:40.484Z,3016.00
2017-10-25T08:57:40.481Z,3092.00
2017-10-25T08:58:40.487Z,3084.00
2017-10-25T08:59:40.484Z,3268.00
2017-10-25T09:00:40.486Z,3588.00
2017-10-25T09:01:40.487Z,4080.00
2017-10-25T09:02:40.491Z,4572.00
2017-10-25T09:03:40.489Z,4860.00
2017-10-25T09:04:40.486Z,5016.00
2017-10-25T09:05:40.503Z,4876.00
2017-10-25T09:06:40.522Z,4700.00
2017-10-25T09:07:40.489Z,4852.00
2017-10-25T09:08:40.490Z,4860.00
2017-10-25T09:09:40.494Z,4140.00
2017-10-25T09:10:40.500Z,3916.00
2017-10-25T09:11:40.492Z,3928.00
2017-10-25T09:12:40.495Z,3936.00
2017-10-25T09:13:40.494Z,3956.00
2017-10-25T09:14:40.496Z,3988.00
2017-10-25T09:15:40.494Z,4164.00
2017-10-25T09:16:40.501Z,4360.00
2017-10-25T09:17:40.495Z,4632.00
2017-10-25T09:18:40.497Z,5320.00
2017-10-25T09:19:40.502Z,5808.00
2017-10-25T09:20:40.507Z,6140.00
2017-10-25T09:21:40.500Z,6196.00
2017-10-25T09:22:40.502Z,5224.00
2017-10-25T09:23:40.499Z,4724.00
2017-10-25T09:24:40.502Z,4388.00
2017-10-25T09:25:40.501Z,4128.00
2017-10-25T09:26:40.510Z,3788.00
2017-10-25T09:27:40.505Z,3648.00
2017-10-25T09:28:40.506Z,3620.00
2017-10-25T09:29:40.506Z,3740.00
2017-10-25T09:30:40.508Z,3924.00
2017-10-25T09:31:40.508Z,4304.00
2017-10-25T09:32:40.512Z,4948.00
2017-10-25T09:33:40.513Z,5672.00
2017-10-25T09:34:40.509Z,6796.00
2017-10-25T09:35:40.512Z,8080.00
2017-10-25T09:36:40.513Z,8932.00
2017-10-25T09:37:40.513Z,9068.00
2017-10-25T09:38:40.518Z,8616.00
2017-10-25T09:39:40.516Z,9336.00
2017-10-25T09:40:40.510Z,9720.00
2017-10-25T09:41:40.533Z,9028.00
2017-10-25T09:42:40.514Z,8172.00
2017-10-25T09:43:40.522Z,7668.00
2017-10-25T09:44:40.523Z,7340.00
2017-10-25T09:45:40.536Z,7308.00
2017-10-25T09:46:40.524Z,7336.00
2017-10-25T09:47:40.529Z,6784.00
2017-10-25T09:48:40.530Z,6024.00
2017-10-25T09:49:40.525Z,5316.00
2017-10-25T09:50:40.532Z,4748.00
2017-10-25T09:51:40.531Z,4584.00
2017-10-25T09:52:40.536Z,4748.00
2017-10-25T09:53:40.537Z,4904.00
2017-10-25T09:54:40.537Z,4940.00
2017-10-25T09:55:40.615Z,5120.00
2017-10-25T09:56:40.539Z,5188.00
2017-10-25T09:57:40.546Z,5424.00
2017-10-25T09:58:40.542Z,5688.00
2017-10-25T09:59:40.546Z,5860.00
2017-10-25T10:00:40.549Z,6052.00
2017-10-25T10:01:40.548Z,6520.00
2017-10-25T10:02:40.547Z,7244.00
2017-10-25T10:03:40.550Z,8248.00
2017-10-25T10:04:40.556Z,9052.00
2017-10-25T10:05:40.552Z,9612.00
2017-10-25T10:06:40.554Z,10300.00
2017-10-25T10:07:40.553Z,9400.00
2017-10-25T10:08:40.554Z,8500.00
2017-10-25T10:09:40.559Z,8372.00
2017-10-25T10:10:40.558Z,8388.00
2017-10-25T10:11:40.562Z,8024.00
2017-10-25T10:12:40.566Z,7984.00
2017-10-25T10:13:40.564Z,8008.00
2017-10-25T10:14:40.569Z,7564.00
2017-10-25T10:15:40.582Z,7692.00
2017-10-25T10:16:40.571Z,7948.00
2017-10-25T10:17:40.574Z,7964.00
2017-10-25T10:18:40.573Z,8140.00
2017-10-25T10:19:40.577Z,8184.00
2017-10-25T10:20:40.573Z,9212.00
2017-10-25T10:21:40.581Z,9732.00
2017-10-25T10:22:40.590Z,9904.00
2017-10-25T10:23:40.583Z,9892.00
2017-10-25T10:24:40.593Z,9668.00
2017-10-25T10:25:40.590Z,9232.00
2017-10-25T10:26:40.595Z,8788.00
2017-10-25T10:27:40.595Z,8936.00
2017-10-25T10:28:40.593Z,9036.00
2017-10-25T10:29:40.594Z,9124.00
2017-10-25T10:30:41.011Z,8020.00
2017-10-25T10:31:40.612Z,6976.00
2017-10-25T10:32:40.616Z,6712.00
2017-10-25T10:33:40.617Z,5840.00
2017-10-25T10:34:40.608Z,5112.00
2017-10-25T10:35:40.610Z,4252.00
2017-10-25T10:36:40.613Z,3800.00
2017-10-25T10:37:40.615Z,4736.00
2017-10-25T10:38:40.618Z,5668.00
2017-10-25T10:39:40.623Z,5676.00
2017-10-25T10:40:40.620Z,6024.00
2017-10-25T10:41:40.622Z,6172.00
2017-10-25T10:42:40.627Z,6156.00
2017-10-25T10:43:40.625Z,6180.00
2017-10-25T10:44:40.631Z,6928.00
2017-10-25T10:45:40.632Z,7640.00
2017-10-25T10:46:40.638Z,7668.00
2017-10-25T10:47:40.636Z,7580.00
2017-10-25T10:48:40.635Z,7908.00
2017-10-25T10:49:40.641Z,7892.00
2017-10-25T10:50:40.658Z,7592.00
2017-10-25T10:51:40.644Z,7480.00
2017-10-25T10:52:40.650Z,7416.00
2017-10-25T10:53:40.647Z,7124.00
2017-10-25T10:54:40.651Z,7240.00
2017-10-25T10:55:40.651Z,6820.00
2017-10-25T10:56:40.653Z,6696.00
2017-10-25T10:57:40.657Z,7056.00
2017-10-25T10:58:40.660Z,7240.00
2017-10-25T10:59:40.659Z,7156.00
2017-10-25T11:00:40.659Z,7644.00
2017-10-25T11:01:40.661Z,8116.00
2017-10-25T11:02:40.669Z,8104.00
2017-10-25T11:03:40.671Z,8560.00
2017-10-25T11:04:40.669Z,8220.00
2017-10-25T11:05:40.673Z,7748.00
2017-10-25T11:06:40.675Z,7820.00
2017-10-25T11:07:40.682Z,8068.00
2017-10-25T11:08:40.684Z,8144.00
2017-10-25T11:09:40.690Z,7804.00
2017-10-25T11:10:40.683Z,7324.00
2017-10-25T11:11:40.685Z,7020.00
2017-10-25T11:12:40.689Z,7020.00
2017-10-25T11:13:40.690Z,7540.00
2017-10-25T11:14:40.695Z,7952.00
2017-10-25T11:15:40.693Z,8388.00
2017-10-25T11:16:40.702Z,8136.00
2017-10-25T11:17:40.699Z,7532.00
2017-10-25T11:18:40.707Z,7196.00
2017-10-25T11:19:40.706Z,7404.00
2017-10-25T11:20:40.710Z,7232.00
2017-10-25T11:21:40.712Z,6828.00
2017-10-25T11:22:40.715Z,6784.00
2017-10-25T11:23:40.721Z,6644.00
2017-10-25T11:24:40.718Z,6588.00
2017-10-25T11:25:40.722Z,7064.00
2017-10-25T11:26:40.723Z,7400.00
2017-10-25T11:27:40.730Z,7748.00
2017-10-25T11:28:40.729Z,7120.00
2017-10-25T11:29:40.734Z,6988.00
2017-10-25T11:30:40.735Z,6604.00
2017-10-25T11:31:40.734Z,6404.00
2017-10-25T11:32:40.738Z,6236.00
2017-10-25T11:33:40.746Z,6524.00
2017-10-25T11:34:40.745Z,6748.00
2017-10-25T11:35:40.760Z,6868.00
2017-10-25T11:36:40.756Z,6336.00
2017-10-25T11:37:40.756Z,5108.00
2017-10-25T11:38:40.756Z,4700.00
2017-10-25T11:39:40.759Z,4680.00
2017-10-25T11:40:40.771Z,4100.00
2017-10-25T11:41:40.765Z,3852.00
2017-10-25T11:42:40.764Z,3864.00
2017-10-25T11:43:40.776Z,4780.00
2017-10-25T11:44:40.770Z,5524.00
2017-10-25T11:45:40.773Z,6608.00
2017-10-25T11:46:40.804Z,6684.00
2017-10-25T11:47:40.782Z,6140.00
2017-10-25T11:48:40.781Z,5172.00
2017-10-25T11:49:40.782Z,5448.00
2017-10-25T11:50:40.792Z,5308.00
2017-10-25T11:51:40.790Z,5588.00
2017-10-25T11:52:40.796Z,5544.00
2017-10-25T11:53:40.795Z,5528.00
2017-10-25T11:54:40.796Z,5288.00
2017-10-25T11:55:40.798Z,4924.00
2017-10-25T11:56:40.800Z,4164.00
2017-10-25T11:57:40.803Z,3864.00
2017-10-25T11:58:40.804Z,3208.00
2017-10-25T11:59:40.809Z,3608.00
2017-10-25T12:00:40.806Z,3396.00
2017-10-25T12:01:40.812Z,4312.00
2017-10-25T12:02:40.813Z,4596.00
2017-10-25T12:03:40.815Z,4920.00
2017-10-25T12:04:40.816Z,5180.00
2017-10-25T12:05:40.821Z,5632.00
2017-10-25T12:06:40.836Z,5624.00
2017-10-25T12:07:40.824Z,5048.00
2017-10-25T12:08:40.821Z,4984.00
2017-10-25T12:09:40.831Z,5368.00
2017-10-25T12:10:40.836Z,5972.00
2017-10-25T12:11:40.837Z,6500.00
2017-10-25T12:12:40.836Z,6284.00
2017-10-25T12:13:40.835Z,6220.00
2017-10-25T12:14:40.846Z,5804.00
2017-10-25T12:15:40.841Z,6176.00
2017-10-25T12:16:40.844Z,7356.00
2017-10-25T12:17:40.851Z,7232.00
2017-10-25T12:18:40.852Z,9068.00
2017-10-25T12:19:40.848Z,9320.00
2017-10-25T12:20:40.858Z,9304.00
2017-10-25T12:21:40.857Z,8696.00
2017-10-25T12:22:40.860Z,7408.00
2017-10-25T12:23:40.872Z,7420.00
2017-10-25T12:24:40.867Z,5944.00
2017-10-25T12:25:40.867Z,5920.00
2017-10-25T12:26:40.861Z,5648.00
2017-10-25T12:27:40.868Z,5812.00
2017-10-25T12:28:40.873Z,6300.00
2017-10-25T12:29:40.874Z,4908.00
2017-10-25T12:30:40.877Z,4500.00
2017-10-25T12:31:40.880Z,5440.00
2017-10-25T12:32:40.884Z,5972.00
2017-10-25T12:33:40.888Z,6040.00
2017-10-25T12:34:40.887Z,6624.00
2017-10-25T12:35:40.942Z,5888.00
2017-10-25T12:36:40.917Z,6084.00
2017-10-25T12:37:40.894Z,5644.00
2017-10-25T12:38:40.900Z,5740.00